sensor_id;sensor_type;location;lat;lon;timestamp;pressure;altitude;pressure_sealevel;temperature;humidity
52957;BME280;38819;42.692;23.342;2024-01-11T00:01:35;96279.53;;;-2.32;64.98
52957;BME280;38819;42.692;23.342;2024-01-11T00:04:00;96273.22;;;-2.31;64.27
52957;BME280;38819;42.692;23.342;2024-01-11T00:06:26;96272.44;;;-2.32;64.74
52957;BME280;38819;42.692;23.342;2024-01-11T00:08:51;96268.13;;;-2.33;64.88
52957;BME280;38819;42.692;23.342;2024-01-11T00:11:16;96261.75;;;-2.38;64.87
52957;BME280;38819;42.692;23.342;2024-01-11T00:13:41;96263.19;;;-2.36;64.40
52957;BME280;38819;42.692;23.342;2024-01-11T00:16:07;96259.75;;;-2.36;64.36
52957;BME280;38819;42.692;23.342;2024-01-11T00:18:32;96259.75;;;-2.36;63.50
52957;BME280;38819;42.692;23.342;2024-01-11T00:20:57;96264.78;;;-2.42;63.08
52957;BME280;38819;42.692;23.342;2024-01-11T00:23:23;96256.75;;;-2.48;64.10
52957;BME280;38819;42.692;23.342;2024-01-11T00:25:48;96258.41;;;-2.47;63.94
52957;BME280;38819;42.692;23.342;2024-01-11T00:28:13;96256.75;;;-2.48;62.71
52957;BME280;38819;42.692;23.342;2024-01-11T00:30:38;96251.72;;;-2.43;62.87
52957;BME280;38819;42.692;23.342;2024-01-11T00:33:04;96246.88;;;-2.39;62.68
52957;BME280;38819;42.692;23.342;2024-01-11T00:35:29;96258.00;;;-2.44;62.58
52957;BME280;38819;42.692;23.342;2024-01-11T00:37:55;96255.28;;;-2.51;61.85
52957;BME280;38819;42.692;23.342;2024-01-11T00:40:20;96256.50;;;-2.53;61.96
52957;BME280;38819;42.692;23.342;2024-01-11T00:42:45;96245.81;;;-2.60;62.45
52957;BME280;38819;42.692;23.342;2024-01-11T00:45:10;96254.94;;;-2.63;61.88
52957;BME280;38819;42.692;23.342;2024-01-11T00:47:35;96246.00;;;-2.62;62.19
52957;BME280;38819;42.692;23.342;2024-01-11T00:50:01;96251.03;;;-2.67;62.23
52957;BME280;38819;42.692;23.342;2024-01-11T00:52:26;96249.38;;;-2.68;62.93
52957;BME280;38819;42.692;23.342;2024-01-11T00:54:51;96241.06;;;-2.65;63.35
52957;BME280;38819;42.692;23.342;2024-01-11T00:57:16;96243.47;;;-2.70;63.65
52957;BME280;38819;42.692;23.342;2024-01-11T00:59:42;96234.91;;;-2.72;63.81
52957;BME280;38819;42.692;23.342;2024-01-11T01:02:07;96230.88;;;-2.68;63.21
52957;BME280;38819;42.692;23.342;2024-01-11T01:04:32;96233.31;;;-2.66;63.05
52957;BME280;38819;42.692;23.342;2024-01-11T01:06:57;96235.06;;;-2.58;62.34
52957;BME280;38819;42.692;23.342;2024-01-11T01:09:23;96236.59;;;-2.64;62.14
52957;BME280;38819;42.692;23.342;2024-01-11T01:11:48;96234.78;;;-2.64;62.24
52957;BME280;38819;42.692;23.342;2024-01-11T01:14:13;96232.59;;;-2.60;61.75
52957;BME280;38819;42.692;23.342;2024-01-11T01:16:38;96230.41;;;-2.71;61.66
52957;BME280;38819;42.692;23.342;2024-01-11T01:19:04;96231.41;;;-2.72;62.28
52957;BME280;38819;42.692;23.342;2024-01-11T01:21:29;96228.13;;;-2.74;61.75
52957;BME280;38819;42.692;23.342;2024-01-11T01:23:54;96230.41;;;-2.71;62.54
52957;BME280;38819;42.692;23.342;2024-01-11T01:26:20;96234.06;;;-2.72;62.55
52957;BME280;38819;42.692;23.342;2024-01-11T01:28:45;96232.50;;;-2.67;62.59
52957;BME280;38819;42.692;23.342;2024-01-11T01:31:10;96237.63;;;-2.80;62.43
52957;BME280;38819;42.692;23.342;2024-01-11T01:33:35;96229.53;;;-2.78;62.47
52957;BME280;38819;42.692;23.342;2024-01-11T01:36:01;96229.78;;;-2.73;62.82
52957;BME280;38819;42.692;23.342;2024-01-11T01:38:26;96230.41;;;-2.71;62.36
52957;BME280;38819;42.692;23.342;2024-01-11T01:40:51;96224.59;;;-2.67;62.03
52957;BME280;38819;42.692;23.342;2024-01-11T01:43:16;96213.38;;;-2.69;61.81
52957;BME280;38819;42.692;23.342;2024-01-11T01:45:41;96215.75;;;-2.74;62.24
52957;BME280;38819;42.692;23.342;2024-01-11T01:48:07;96212.00;;;-2.80;62.50
52957;BME280;38819;42.692;23.342;2024-01-11T01:50:32;96207.84;;;-2.89;62.18
52957;BME280;38819;42.692;23.342;2024-01-11T01:52:58;96209.63;;;-2.89;62.92
52957;BME280;38819;42.692;23.342;2024-01-11T01:55:23;96200.81;;;-2.96;62.75
52957;BME280;38819;42.692;23.342;2024-01-11T01:57:50;96203.91;;;-3.08;62.77
52957;BME280;38819;42.692;23.342;2024-01-11T02:00:16;96198.16;;;-3.11;62.87
52957;BME280;38819;42.692;23.342;2024-01-11T02:02:43;96195.53;;;-3.11;63.55
52957;BME280;38819;42.692;23.342;2024-01-11T02:05:09;96190.50;;;-3.06;63.25
52957;BME280;38819;42.692;23.342;2024-01-11T02:07:35;96191.13;;;-3.04;63.02
52957;BME280;38819;42.692;23.342;2024-01-11T02:10:00;96192.44;;;-3.00;62.70
52957;BME280;38819;42.692;23.342;2024-01-11T02:12:26;96178.13;;;-3.21;63.10
52957;BME280;38819;42.692;23.342;2024-01-11T02:14:53;96189.50;;;-3.20;63.10
52957;BME280;38819;42.692;23.342;2024-01-11T02:17:18;96184.78;;;-3.10;62.96
52957;BME280;38819;42.692;23.342;2024-01-11T02:19:43;96184.31;;;-3.13;62.57
52957;BME280;38819;42.692;23.342;2024-01-11T02:22:12;96184.50;;;-3.15;62.71
52957;BME280;38819;42.692;23.342;2024-01-11T02:24:38;96182.75;;;-3.23;62.54
52957;BME280;38819;42.692;23.342;2024-01-11T02:27:04;96190.41;;;-3.28;62.94
52957;BME280;38819;42.692;23.342;2024-01-11T02:29:30;96180.00;;;-3.44;63.22
52957;BME280;38819;42.692;23.342;2024-01-11T02:31:56;96180.56;;;-3.49;63.67
52957;BME280;38819;42.692;23.342;2024-01-11T02:34:22;96179.38;;;-3.46;63.18
52957;BME280;38819;42.692;23.342;2024-01-11T02:36:47;96191.88;;;-3.40;63.24
52957;BME280;38819;42.692;23.342;2024-01-11T02:39:13;96191.84;;;-3.55;63.67
52957;BME280;38819;42.692;23.342;2024-01-11T02:41:41;96188.94;;;-3.45;63.47
52957;BME280;38819;42.692;23.342;2024-01-11T02:44:07;96185.38;;;-3.53;63.29
52957;BME280;38819;42.692;23.342;2024-01-11T02:46:32;96183.38;;;-3.65;63.57
52957;BME280;38819;42.692;23.342;2024-01-11T02:48:57;96174.00;;;-3.53;63.29
52957;BME280;38819;42.692;23.342;2024-01-11T02:51:23;96173.34;;;-3.55;62.93
52957;BME280;38819;42.692;23.342;2024-01-11T02:53:48;96170.53;;;-3.68;63.70
52957;BME280;38819;42.692;23.342;2024-01-11T02:56:13;96173.34;;;-3.70;63.80
52957;BME280;38819;42.692;23.342;2024-01-11T02:58:38;96172.06;;;-3.74;63.66
52957;BME280;38819;42.692;23.342;2024-01-11T03:01:04;96174.03;;;-3.76;63.81
52957;BME280;38819;42.692;23.342;2024-01-11T03:03:29;96169.22;;;-3.73;64.13
52957;BME280;38819;42.692;23.342;2024-01-11T03:05:54;96171.22;;;-3.75;64.13
52957;BME280;38819;42.692;23.342;2024-01-11T03:08:19;96170.22;;;-3.74;64.39
52957;BME280;38819;42.692;23.342;2024-01-11T03:10:45;96170.06;;;-3.72;64.48
52957;BME280;38819;42.692;23.342;2024-01-11T03:13:10;96170.97;;;-3.65;64.64
52957;BME280;38819;42.692;23.342;2024-01-11T03:15:35;96170.25;;;-3.59;63.98
52957;BME280;38819;42.692;23.342;2024-01-11T03:18:00;96172.81;;;-3.65;64.33
52957;BME280;38819;42.692;23.342;2024-01-11T03:20:26;96166.97;;;-3.76;64.45
52957;BME280;38819;42.692;23.342;2024-01-11T03:22:51;96168.94;;;-3.78;64.62
52957;BME280;38819;42.692;23.342;2024-01-11T03:25:17;96160.66;;;-3.75;64.79
52957;BME280;38819;42.692;23.342;2024-01-11T03:27:42;96173.06;;;-3.75;64.67
52957;BME280;38819;42.692;23.342;2024-01-11T03:30:08;96170.31;;;-3.82;65.14
52957;BME280;38819;42.692;23.342;2024-01-11T03:32:33;96167.72;;;-3.90;65.42
52957;BME280;38819;42.692;23.342;2024-01-11T03:34:58;96175.03;;;-3.92;65.39
52957;BME280;38819;42.692;23.342;2024-01-11T03:37:23;96157.06;;;-3.97;65.96
52957;BME280;38819;42.692;23.342;2024-01-11T03:39:49;96153.97;;;-4.00;66.11
52957;BME280;38819;42.692;23.342;2024-01-11T03:42:14;96162.34;;;-3.97;66.24
52957;BME280;38819;42.692;23.342;2024-01-11T03:44:39;96159.28;;;-3.85;65.73
52957;BME280;38819;42.692;23.342;2024-01-11T03:47:04;96158.09;;;-3.83;65.98
52957;BME280;38819;42.692;23.342;2024-01-11T03:49:30;96155.16;;;-3.88;65.91
52957;BME280;38819;42.692;23.342;2024-01-11T03:51:55;96144.91;;;-3.83;65.97
52957;BME280;38819;42.692;23.342;2024-01-11T03:54:20;96149.00;;;-3.80;65.93
52957;BME280;38819;42.692;23.342;2024-01-11T03:56:45;96151.66;;;-3.80;65.74
52957;BME280;38819;42.692;23.342;2024-01-11T03:59:11;96151.03;;;-3.82;65.99
52957;BME280;38819;42.692;23.342;2024-01-11T04:01:42;96150.28;;;-3.76;65.76
52957;BME280;38819;42.692;23.342;2024-01-11T04:04:08;96142.53;;;-3.78;65.80
52957;BME280;38819;42.692;23.342;2024-01-11T04:06:33;96143.91;;;-3.82;65.78
52957;BME280;38819;42.692;23.342;2024-01-11T04:08:58;96149.00;;;-3.80;65.93
52957;BME280;38819;42.692;23.342;2024-01-11T04:11:27;96141.28;;;-3.82;66.00
52957;BME280;38819;42.692;23.342;2024-01-11T04:13:52;96140.56;;;-3.76;65.95
52957;BME280;38819;42.692;23.342;2024-01-11T04:16:17;96139.78;;;-3.84;66.19
52957;BME280;38819;42.692;23.342;2024-01-11T04:18:42;96139.16;;;-3.86;66.31
52957;BME280;38819;42.692;23.342;2024-01-11T04:21:08;96133.72;;;-3.85;66.14
52957;BME280;38819;42.692;23.342;2024-01-11T04:23:44;96131.16;;;-3.78;66.09
52957;BME280;38819;42.692;23.342;2024-01-11T04:26:09;96127.44;;;-3.84;66.20
52957;BME280;38819;42.692;23.342;2024-01-11T04:28:36;96125.34;;;-3.74;66.04
52957;BME280;38819;42.692;23.342;2024-01-11T04:31:01;96126.00;;;-3.72;66.29
52957;BME280;38819;42.692;23.342;2024-01-11T04:33:27;96133.09;;;-3.72;66.13
52957;BME280;38819;42.692;23.342;2024-01-11T04:35:52;96128.44;;;-3.70;65.71
52957;BME280;38819;42.692;23.342;2024-01-11T04:38:17;96135.56;;;-3.70;65.67
52957;BME280;38819;42.692;23.342;2024-01-11T04:40:42;96134.81;;;-3.64;65.39
52957;BME280;38819;42.692;23.342;2024-01-11T04:43:08;96135.22;;;-3.67;65.48
52957;BME280;38819;42.692;23.342;2024-01-11T04:45:34;96135.09;;;-3.74;65.21
52957;BME280;38819;42.692;23.342;2024-01-11T04:47:59;96139.47;;;-3.66;65.40
52957;BME280;38819;42.692;23.342;2024-01-11T04:50:24;96134.38;;;-3.68;64.81
52957;BME280;38819;42.692;23.342;2024-01-11T04:52:49;96140.28;;;-3.81;65.07
52957;BME280;38819;42.692;23.342;2024-01-11T04:55:15;96138.63;;;-3.82;65.24
52957;BME280;38819;42.692;23.342;2024-01-11T04:57:40;96136.16;;;-3.83;65.16
52957;BME280;38819;42.692;23.342;2024-01-11T05:00:05;96139.25;;;-3.80;65.21
52957;BME280;38819;42.692;23.342;2024-01-11T05:02:31;96139.38;;;-3.73;64.80
52957;BME280;38819;42.692;23.342;2024-01-11T05:04:56;96138.28;;;-3.79;64.91
52957;BME280;38819;42.692;23.342;2024-01-11T05:07:21;96147.59;;;-3.91;65.37
52957;BME280;38819;42.692;23.342;2024-01-11T05:09:46;96146.00;;;-3.92;66.27
52957;BME280;38819;42.692;23.342;2024-01-11T05:12:12;96144.88;;;-3.98;66.28
52957;BME280;38819;42.692;23.342;2024-01-11T05:14:37;96143.41;;;-4.00;66.53
52957;BME280;38819;42.692;23.342;2024-01-11T05:17:02;96133.31;;;-3.97;66.42
52957;BME280;38819;42.692;23.342;2024-01-11T05:19:28;96127.16;;;-3.89;65.94
52957;BME280;38819;42.692;23.342;2024-01-11T05:21:53;96122.34;;;-3.85;66.25
52957;BME280;38819;42.692;23.342;2024-01-11T05:24:18;96127.44;;;-3.84;66.36
52957;BME280;38819;42.692;23.342;2024-01-11T05:26:43;96118.97;;;-3.79;65.90
52957;BME280;38819;42.692;23.342;2024-01-11T05:29:08;96124.72;;;-3.76;65.82
52957;BME280;38819;42.692;23.342;2024-01-11T05:31:34;96119.63;;;-3.77;65.77
52957;BME280;38819;42.692;23.342;2024-01-11T05:33:59;96114.50;;;-3.94;65.48
52957;BME280;38819;42.692;23.342;2024-01-11T05:36:24;96116.44;;;-3.87;65.48
52957;BME280;38819;42.692;23.342;2024-01-11T05:38:50;96109.84;;;-3.92;65.83
52957;BME280;38819;42.692;23.342;2024-01-11T05:41:15;96108.09;;;-3.99;66.07
52957;BME280;38819;42.692;23.342;2024-01-11T05:43:40;96108.75;;;-3.97;65.75
52957;BME280;38819;42.692;23.342;2024-01-11T05:46:06;96115.03;;;-3.98;65.59
52957;BME280;38819;42.692;23.342;2024-01-11T05:48:32;96116.59;;;-3.89;65.94
52957;BME280;38819;42.692;23.342;2024-01-11T05:50:57;96095.00;;;-3.93;65.50
52957;BME280;38819;42.692;23.342;2024-01-11T05:53:22;96106.56;;;-3.94;65.35
52957;BME280;38819;42.692;23.342;2024-01-11T05:55:49;96105.75;;;-3.94;65.57
52957;BME280;38819;42.692;23.342;2024-01-11T05:58:15;96099.38;;;-4.00;65.50
52957;BME280;38819;42.692;23.342;2024-01-11T06:00:40;96094.09;;;-4.00;65.71
52957;BME280;38819;42.692;23.342;2024-01-11T06:03:07;96096.97;;;-4.10;65.90
52957;BME280;38819;42.692;23.342;2024-01-11T06:05:32;96095.88;;;-4.15;66.23
52957;BME280;38819;42.692;23.342;2024-01-11T06:07:57;96103.56;;;-4.05;66.26
52957;BME280;38819;42.692;23.342;2024-01-11T06:10:23;96089.44;;;-3.98;65.94
52957;BME280;38819;42.692;23.342;2024-01-11T06:12:48;96095.22;;;-3.94;65.85
52957;BME280;38819;42.692;23.342;2024-01-11T06:15:13;96094.28;;;-3.86;65.59
52957;BME280;38819;42.692;23.342;2024-01-11T06:17:38;96094.00;;;-3.92;65.57
52957;BME280;38819;42.692;23.342;2024-01-11T06:20:04;96098.03;;;-3.96;65.30
52957;BME280;38819;42.692;23.342;2024-01-11T06:22:30;96098.91;;;-4.03;65.71
52957;BME280;38819;42.692;23.342;2024-01-11T06:24:55;96091.97;;;-4.04;65.40
52957;BME280;38819;42.692;23.342;2024-01-11T06:27:20;96095.53;;;-4.12;65.65
52957;BME280;38819;42.692;23.342;2024-01-11T06:29:45;96090.53;;;-4.07;65.96
52957;BME280;38819;42.692;23.342;2024-01-11T06:32:11;96088.56;;;-3.90;65.76
52957;BME280;38819;42.692;23.342;2024-01-11T06:34:36;96084.75;;;-3.87;65.48
52957;BME280;38819;42.692;23.342;2024-01-11T06:37:02;96083.56;;;-3.85;65.34
52957;BME280;38819;42.692;23.342;2024-01-11T06:39:28;96080.84;;;-3.77;65.47
52957;BME280;38819;42.692;23.342;2024-01-11T06:41:53;96080.19;;;-3.79;65.23
52957;BME280;38819;42.692;23.342;2024-01-11T06:44:18;96074.19;;;-3.73;65.58
52957;BME280;38819;42.692;23.342;2024-01-11T06:46:43;96074.75;;;-3.62;65.62
52957;BME280;38819;42.692;23.342;2024-01-11T06:49:08;96073.63;;;-3.53;65.31
52957;BME280;38819;42.692;23.342;2024-01-11T06:51:34;96074.84;;;-3.41;65.07
52957;BME280;38819;42.692;23.342;2024-01-11T06:53:59;96084.75;;;-3.58;65.08
52957;BME280;38819;42.692;23.342;2024-01-11T06:56:26;96074.00;;;-3.56;65.08
52957;BME280;38819;42.692;23.342;2024-01-11T06:58:51;96078.00;;;-3.45;64.94
52957;BME280;38819;42.692;23.342;2024-01-11T07:01:17;96079.19;;;-3.48;65.08
52957;BME280;38819;42.692;23.342;2024-01-11T07:03:42;96074.25;;;-3.36;64.71
52957;BME280;38819;42.692;23.342;2024-01-11T07:06:07;96077.34;;;-3.32;64.41
52957;BME280;38819;42.692;23.342;2024-01-11T07:08:33;96072.34;;;-3.27;64.35
52957;BME280;38819;42.692;23.342;2024-01-11T07:10:59;96077.06;;;-3.23;64.05
52957;BME280;38819;42.692;23.342;2024-01-11T07:13:25;96077.44;;;-3.26;64.09
52957;BME280;38819;42.692;23.342;2024-01-11T07:15:50;96069.59;;;-3.19;64.38
52957;BME280;38819;42.692;23.342;2024-01-11T07:18:17;96076.50;;;-3.18;64.34
52957;BME280;38819;42.692;23.342;2024-01-11T07:20:42;96070.53;;;-3.27;64.49
52957;BME280;38819;42.692;23.342;2024-01-11T07:23:08;96066.41;;;-3.29;64.72
52957;BME280;38819;42.692;23.342;2024-01-11T07:25:34;96065.41;;;-3.28;64.54
52957;BME280;38819;42.692;23.342;2024-01-11T07:27:59;96072.22;;;-3.19;64.83
52957;BME280;38819;42.692;23.342;2024-01-11T07:30:25;96069.78;;;-3.21;64.54
52957;BME280;38819;42.692;23.342;2024-01-11T07:32:50;96063.56;;;-3.13;64.66
52957;BME280;38819;42.692;23.342;2024-01-11T07:35:16;96064.94;;;-3.02;64.51
52957;BME280;38819;42.692;23.342;2024-01-11T07:37:41;96073.38;;;-2.92;63.80
52957;BME280;38819;42.692;23.342;2024-01-11T07:40:07;96067.53;;;-2.87;63.61
52957;BME280;38819;42.692;23.342;2024-01-11T07:42:38;96069.97;;;-2.86;63.27
52957;BME280;38819;42.692;23.342;2024-01-11T07:45:04;96070.44;;;-2.82;62.77
52957;BME280;38819;42.692;23.342;2024-01-11T07:47:30;96068.81;;;-2.98;63.16
52957;BME280;38819;42.692;23.342;2024-01-11T07:49:55;96069.47;;;-3.11;62.99
52957;BME280;38819;42.692;23.342;2024-01-11T07:52:20;96067.50;;;-3.09;63.10
52957;BME280;38819;42.692;23.342;2024-01-11T07:54:46;96066.84;;;-3.11;63.79
52957;BME280;38819;42.692;23.342;2024-01-11T07:57:11;96057.66;;;-3.15;64.12
52957;BME280;38819;42.692;23.342;2024-01-11T07:59:36;96057.00;;;-3.02;63.95
52957;BME280;38819;42.692;23.342;2024-01-11T08:02:02;96055.72;;;-3.06;63.52
52957;BME280;38819;42.692;23.342;2024-01-11T08:04:27;96049.72;;;-3.15;64.17
52957;BME280;38819;42.692;23.342;2024-01-11T08:06:52;96055.00;;;-3.15;64.35
52957;BME280;38819;42.692;23.342;2024-01-11T08:09:18;96056.16;;;-3.03;64.35
52957;BME280;38819;42.692;23.342;2024-01-11T08:11:43;96054.47;;;-3.10;64.40
52957;BME280;38819;42.692;23.342;2024-01-11T08:14:08;96049.19;;;-3.10;64.19
52957;BME280;38819;42.692;23.342;2024-01-11T08:16:34;96049.00;;;-3.09;64.56
52957;BME280;38819;42.692;23.342;2024-01-11T08:18:59;96048.47;;;-2.98;64.40
52957;BME280;38819;42.692;23.342;2024-01-11T08:21:25;96046.50;;;-2.95;64.30
52957;BME280;38819;42.692;23.342;2024-01-11T08:23:51;96030.88;;;-2.90;64.06
52957;BME280;38819;42.692;23.342;2024-01-11T08:26:16;96037.75;;;-2.74;64.05
52957;BME280;38819;42.692;23.342;2024-01-11T08:28:44;96040.31;;;-2.59;64.00
52957;BME280;38819;42.692;23.342;2024-01-11T08:31:10;96031.03;;;-2.55;63.80
52957;BME280;38819;42.692;23.342;2024-01-11T08:33:35;96040.94;;;-2.36;63.16
52957;BME280;38819;42.692;23.342;2024-01-11T08:36:02;96040.56;;;-2.33;63.10
52957;BME280;38819;42.692;23.342;2024-01-11T08:38:28;96041.47;;;-2.19;62.48
52957;BME280;38819;42.692;23.342;2024-01-11T08:40:54;96043.69;;;-2.22;62.81
52957;BME280;38819;42.692;23.342;2024-01-11T08:43:19;96039.09;;;-2.14;62.56
52957;BME280;38819;42.692;23.342;2024-01-11T08:45:44;96036.13;;;-1.97;62.27
52957;BME280;38819;42.692;23.342;2024-01-11T08:48:10;96030.25;;;-1.93;61.91
52957;BME280;38819;42.692;23.342;2024-01-11T08:50:36;96034.72;;;-2.00;61.89
52957;BME280;38819;42.692;23.342;2024-01-11T08:53:02;96033.44;;;-2.04;62.32
52957;BME280;38819;42.692;23.342;2024-01-11T08:55:27;96033.28;;;-1.96;61.96
52957;BME280;38819;42.692;23.342;2024-01-11T08:57:52;96024.13;;;-2.00;62.18
52957;BME280;38819;42.692;23.342;2024-01-11T09:00:18;96017.41;;;-1.96;62.40
52957;BME280;38819;42.692;23.342;2024-01-11T09:02:43;96020.28;;;-1.91;62.30
52957;BME280;38819;42.692;23.342;2024-01-11T09:05:09;96011.84;;;-1.73;61.88
52957;BME280;38819;42.692;23.342;2024-01-11T09:07:34;95999.69;;;-1.60;61.68
52957;BME280;38819;42.692;23.342;2024-01-11T09:09:59;95995.19;;;-1.66;61.16
52957;BME280;38819;42.692;23.342;2024-01-11T09:12:24;96007.63;;;-1.67;61.10
52957;BME280;38819;42.692;23.342;2024-01-11T09:14:50;95992.19;;;-1.50;60.86
52957;BME280;38819;42.692;23.342;2024-01-11T09:17:15;95985.47;;;-1.46;60.61
52957;BME280;38819;42.692;23.342;2024-01-11T09:19:40;95987.94;;;-1.44;60.71
52957;BME280;38819;42.692;23.342;2024-01-11T09:22:06;95982.84;;;-1.39;60.58
52957;BME280;38819;42.692;23.342;2024-01-11T09:24:34;95980.81;;;-1.37;61.00
52957;BME280;38819;42.692;23.342;2024-01-11T09:27:00;95977.59;;;-1.33;60.60
52957;BME280;38819;42.692;23.342;2024-01-11T09:29:25;95983.50;;;-1.24;59.88
52957;BME280;38819;42.692;23.342;2024-01-11T09:31:51;95969.63;;;-1.33;59.86
52957;BME280;38819;42.692;23.342;2024-01-11T09:34:16;95971.06;;;-1.30;60.10
52957;BME280;38819;42.692;23.342;2024-01-11T09:36:42;95974.75;;;-1.24;59.94
52957;BME280;38819;42.692;23.342;2024-01-11T09:39:07;95955.03;;;-1.08;60.13
52957;BME280;38819;42.692;23.342;2024-01-11T09:41:33;95957.50;;;-0.94;59.80
52957;BME280;38819;42.692;23.342;2024-01-11T09:44:01;95952.81;;;-0.91;59.79
52957;BME280;38819;42.692;23.342;2024-01-11T09:46:29;95937.50;;;-0.83;59.80
52957;BME280;38819;42.692;23.342;2024-01-11T09:48:55;95930.16;;;-0.81;59.27
52957;BME280;38819;42.692;23.342;2024-01-11T09:51:22;95923.44;;;-0.77;59.09
52957;BME280;38819;42.692;23.342;2024-01-11T09:53:47;95919.75;;;-0.76;59.17
52957;BME280;38819;42.692;23.342;2024-01-11T09:56:16;95925.06;;;-0.69;59.28
52957;BME280;38819;42.692;23.342;2024-01-11T09:58:42;95909.13;;;-0.62;58.85
52957;BME280;38819;42.692;23.342;2024-01-11T10:01:11;95909.97;;;-0.55;58.70
52957;BME280;38819;42.692;23.342;2024-01-11T10:03:38;95903.22;;;-0.44;58.82
52957;BME280;38819;42.692;23.342;2024-01-11T10:06:04;95907.91;;;-0.33;58.40
52957;BME280;38819;42.692;23.342;2024-01-11T10:08:31;95895.63;;;-0.21;58.44
52957;BME280;38819;42.692;23.342;2024-01-11T10:10:56;95895.00;;;-0.23;57.71
52957;BME280;38819;42.692;23.342;2024-01-11T10:13:26;95890.94;;;-0.39;58.61
52957;BME280;38819;42.692;23.342;2024-01-11T10:15:51;95886.69;;;-0.46;58.70
52957;BME280;38819;42.692;23.342;2024-01-11T10:18:17;95886.69;;;-0.46;58.18
52957;BME280;38819;42.692;23.342;2024-01-11T10:20:48;95883.25;;;-0.73;58.86
52957;BME280;38819;42.692;23.342;2024-01-11T10:23:14;95875.06;;;-0.65;59.08
52957;BME280;38819;42.692;23.342;2024-01-11T10:25:39;95873.22;;;-0.51;58.68
52957;BME280;38819;42.692;23.342;2024-01-11T10:28:07;95866.69;;;-0.62;59.23
52957;BME280;38819;42.692;23.342;2024-01-11T10:30:32;95864.44;;;-0.72;59.33
52957;BME280;38819;42.692;23.342;2024-01-11T10:32:58;95859.75;;;-0.50;59.11
52957;BME280;38819;42.692;23.342;2024-01-11T10:35:24;95848.91;;;-0.42;58.92
52957;BME280;38819;42.692;23.342;2024-01-11T10:37:50;95842.34;;;-0.32;58.54
52957;BME280;38819;42.692;23.342;2024-01-11T10:40:18;95840.91;;;-0.22;58.88
52957;BME280;38819;42.692;23.342;2024-01-11T10:42:48;95839.69;;;-0.26;59.34
52957;BME280;38819;42.692;23.342;2024-01-11T10:45:15;95833.75;;;-0.21;59.51
52957;BME280;38819;42.692;23.342;2024-01-11T10:47:45;95831.50;;;-0.24;58.64
52957;BME280;38819;42.692;23.342;2024-01-11T10:50:12;95817.38;;;-0.11;58.89
52957;BME280;38819;42.692;23.342;2024-01-11T10:52:40;95814.69;;;-0.05;58.56
52957;BME280;38819;42.692;23.342;2024-01-11T10:55:08;95818.53;;;-0.01;58.74
52957;BME280;38819;42.692;23.342;2024-01-11T10:57:33;95819.75;;;0.10;58.61
52957;BME280;38819;42.692;23.342;2024-01-11T10:59:59;95814.47;;;0.04;58.56
52957;BME280;38819;42.692;23.342;2024-01-11T11:02:28;95802.16;;;0.09;58.19
52957;BME280;38819;42.692;23.342;2024-01-11T11:04:53;95798.41;;;0.24;58.08
52957;BME280;38819;42.692;23.342;2024-01-11T11:07:20;95789.38;;;0.31;58.36
52957;BME280;38819;42.692;23.342;2024-01-11T11:09:45;95789.53;;;0.36;58.06
52957;BME280;38819;42.692;23.342;2024-01-11T11:12:11;95779.06;;;0.42;58.26
52957;BME280;38819;42.692;23.342;2024-01-11T11:14:36;95772.16;;;0.41;58.27
52957;BME280;38819;42.692;23.342;2024-01-11T11:17:03;95768.44;;;0.42;58.46
52957;BME280;38819;42.692;23.342;2024-01-11T11:19:29;95768.63;;;0.47;58.87
52957;BME280;38819;42.692;23.342;2024-01-11T11:21:55;95762.03;;;0.56;58.31
52957;BME280;38819;42.692;23.342;2024-01-11T11:24:20;95750.31;;;0.64;58.08
52957;BME280;38819;42.692;23.342;2024-01-11T11:26:45;95746.94;;;0.75;57.86
52957;BME280;38819;42.692;23.342;2024-01-11T11:29:10;95743.78;;;0.60;57.99
52957;BME280;38819;42.692;23.342;2024-01-11T11:31:36;95731.50;;;0.65;58.10
52957;BME280;38819;42.692;23.342;2024-01-11T11:34:03;95727.78;;;0.66;58.16
52957;BME280;38819;42.692;23.342;2024-01-11T11:36:29;95726.00;;;0.85;57.94
52957;BME280;38819;42.692;23.342;2024-01-11T11:38:55;95710.00;;;0.92;58.27
52957;BME280;38819;42.692;23.342;2024-01-11T11:41:25;95705.19;;;1.01;57.75
52957;BME280;38819;42.692;23.342;2024-01-11T11:43:51;95704.91;;;1.09;58.14
52957;BME280;38819;42.692;23.342;2024-01-11T11:46:16;95702.09;;;1.04;57.93
52957;BME280;38819;42.692;23.342;2024-01-11T11:51:20;95700.53;;;1.15;57.88
52957;BME280;38819;42.692;23.342;2024-01-11T11:53:46;95697.38;;;1.24;57.94
52957;BME280;38819;42.692;23.342;2024-01-11T11:56:13;95700.09;;;1.18;58.10
52957;BME280;38819;42.692;23.342;2024-01-11T11:58:40;95693.75;;;1.19;58.45
52957;BME280;38819;42.692;23.342;2024-01-11T12:01:05;95689.97;;;1.26;57.94
52957;BME280;38819;42.692;23.342;2024-01-11T12:03:31;95677.03;;;1.30;58.12
52957;BME280;38819;42.692;23.342;2024-01-11T12:06:02;95673.84;;;1.40;58.37
52957;BME280;38819;42.692;23.342;2024-01-11T12:08:27;95661.41;;;1.34;59.19
52957;BME280;38819;42.692;23.342;2024-01-11T12:10:52;95667.81;;;1.33;58.81
52957;BME280;38819;42.692;23.342;2024-01-11T12:13:18;95661.59;;;1.39;58.93
52957;BME280;38819;42.692;23.342;2024-01-11T12:15:43;95667.19;;;1.49;59.04
52957;BME280;38819;42.692;23.342;2024-01-11T12:18:09;95654.75;;;1.61;58.73
52957;BME280;38819;42.692;23.342;2024-01-11T12:20:34;95657.72;;;1.53;59.13
52957;BME280;38819;42.692;23.342;2024-01-11T12:22:59;95644.13;;;1.73;58.81
52957;BME280;38819;42.692;23.342;2024-01-11T12:25:27;95640.56;;;1.79;59.00
52957;BME280;38819;42.692;23.342;2024-01-11T12:27:52;95639.19;;;1.89;58.86
52957;BME280;38819;42.692;23.342;2024-01-11T12:30:17;95625.22;;;1.93;59.05
52957;BME280;38819;42.692;23.342;2024-01-11T12:32:43;95630.44;;;2.00;58.69
52957;BME280;38819;42.692;23.342;2024-01-11T12:35:08;95621.09;;;2.09;58.82
52957;BME280;38819;42.692;23.342;2024-01-11T12:37:34;95619.69;;;2.18;58.86
52957;BME280;38819;42.692;23.342;2024-01-11T12:39:59;95611.47;;;2.20;59.26
52957;BME280;38819;42.692;23.342;2024-01-11T12:42:25;95611.38;;;2.27;59.46
52957;BME280;38819;42.692;23.342;2024-01-11T12:44:51;95604.91;;;2.34;59.67